This is the latest recevied weather packets stored in our database for station/object DL7HMX-13. If no packets are shown the sender has not sent any weather packets the latest 10 day(s).
| Time | Temp. | Humidity | Pressure | Rain* | Wind** | Luminosity | Snow |
|---|---|---|---|---|---|---|---|
| 1777860619 | 10° C | 83% | 1013.9 hPa | 0 mm | - | 0 W/m² | - |
| 1777860021 | 10.56° C | 83% | 1013.8 hPa | 0 mm | - | 0 W/m² | - |
| 1777859424 | 10.56° C | 82% | 1013.5 hPa | 0 mm | - | 0 W/m² | - |
| 1777858828 | 10.56° C | 81% | 1013.4 hPa | 0 mm | - | 0 W/m² | - |
| 1777858231 | 10.56° C | 81% | 1013.3 hPa | 0 mm | - | 0 W/m² | - |
| 1777857617 | 10.56° C | 80% | 1013.2 hPa | 0 mm | - | 0 W/m² | - |
| 1777857020 | 10.56° C | 79% | 1012.9 hPa | 0 mm | - | 0 W/m² | - |
| 1777856423 | 11.11° C | 78% | 1012.9 hPa | 0 mm | - | 0 W/m² | - |
| 1777855826 | 10.56° C | 77% | 1012.8 hPa | 0 mm | - | 0 W/m² | - |
| 1777855229 | 10.56° C | 77% | 1012.8 hPa | 0 mm | - | 0 W/m² | - |
| 1777854617 | 11.11° C | 76% | 1012.8 hPa | 0 mm | - | 0 W/m² | - |
| 1777854019 | 11.11° C | 75% | 1012.9 hPa | 0 mm | - | 0 W/m² | - |
| 1777853421 | 11.11° C | 74% | 1012.7 hPa | 0 mm | - | 0 W/m² | - |
| 1777852825 | 12.22° C | 71% | 1012.6 hPa | 0 mm | - | 0 W/m² | - |
| 1777852229 | 12.22° C | 72% | 1012.5 hPa | 0 mm | - | 0 W/m² | - |
| 1777851631 | 12.22° C | 71% | 1012.5 hPa | 0 mm | - | 0 W/m² | - |
| 1777851019 | 11.67° C | 73% | 1012.5 hPa | 0 mm | - | 0 W/m² | - |
| 1777850422 | 12.22° C | 73% | 1012.5 hPa | 0 mm | - | 0 W/m² | - |
| 1777849823 | 11.67° C | 73% | 1012.5 hPa | 0 mm | - | 0 W/m² | - |
| 1777849227 | 11.67° C | 71% | 1012.3 hPa | 0 mm | - | 0 W/m² | - |
| 1777848631 | 12.78° C | 69% | 1012.4 hPa | 0 mm | - | 0 W/m² | - |
| 1777848019 | 12.78° C | 69% | 1012.2 hPa | 0 mm | - | 0 W/m² | - |
| 1777847419 | 12.78° C | 69% | 1012 hPa | 0 mm | - | 0 W/m² | - |
| 1777846822 | 13.33° C | 67% | 1012 hPa | 0 mm | - | 0 W/m² | - |
| 1777846224 | 13.89° C | 65% | 1011.7 hPa | 0 mm | - | 0 W/m² | - |
* Rain latest hour (hover to see other rain measurements)
** Current wind speed in m/s (hover to see current wind gust speed)